Time;durP1;ratioP1;P1;durP2;ratioP2;P2;SDS_P1;SDS_P2;PMS_P1;PMS_P2;Temp;Humidity;BMP_temperature;BMP_pressure;BME280_temperature;BME280_humidity;BME280_pressure;Samples;Min_cycle;Max_cycle;Signal;HPM_P1;HPM_P2
2021/12/05 00:18:21;;;;;;;51.30;24.87;;;;;;;-1.13;100.00;99087.04;3401979;84;2534485;-92
2021/12/05 00:22:58;;;;;;;57.58;24.98;;;;;;;-1.12;100.00;99077.27;3389629;84;204472;-95
2021/12/05 00:33:46;;;;;;;51.10;24.98;;;;;;;-1.08;100.00;99062.53;3407744;84;246567;-93
2021/12/05 00:39:10;;;;;;;57.73;27.25;;;;;;;-1.04;100.00;99066.16;3434773;84;99046;-96
2021/12/05 00:49:15;;;;;;;54.43;25.50;;;;;;;-0.96;100.00;99070.11;3406423;84;98499;-93
2021/12/05 01:09:44;;;;;;;48.52;22.80;;;;;;;-0.84;100.00;99075.53;3420207;84;99372;-93
2021/12/05 01:19:50;;;;;;;46.03;21.47;;;;;;;-0.75;100.00;99087.59;3419222;84;99224;-93
2021/12/05 01:25:02;;;;;;;49.50;23.70;;;;;;;-0.71;100.00;99075.00;3406295;84;99126;-90
2021/12/05 01:30:05;;;;;;;50.07;22.87;;;;;;;-0.69;100.00;99074.09;3427894;84;71392;-89
2021/12/05 01:35:11;;;;;;;47.53;22.17;;;;;;;-0.66;100.00;99070.73;3411415;84;105484;-94
2021/12/05 01:40:36;;;;;;;48.67;22.00;;;;;;;-0.62;100.00;99075.12;3405748;84;99260;-94
2021/12/05 01:50:53;;;;;;;52.83;22.60;;;;;;;-0.58;100.00;99060.38;3414071;84;112324;-94
2021/12/05 01:55:54;;;;;;;42.35;19.65;;;;;;;-0.57;99.88;99053.29;3401809;84;110709;-95
2021/12/05 02:32:23;;;;;;;46.07;22.10;;;;;;;-0.44;99.29;99036.52;3409731;84;98865;-94
2021/12/05 02:42:46;;;;;;;41.17;18.77;;;;;;;-0.40;99.05;99042.84;3408807;84;98757;-94
2021/12/05 02:47:48;;;;;;;39.70;19.10;;;;;;;-0.38;99.00;99039.22;3416256;84;130204;-93
2021/12/05 02:52:44;;;;;;;44.35;19.90;;;;;;;-0.38;98.93;99035.97;3433514;84;98960;-91
2021/12/05 02:58:00;;;;;;;40.00;19.23;;;;;;;-0.37;98.78;99041.02;3411316;84;132845;-93
2021/12/05 03:02:58;;;;;;;40.85;19.80;;;;;;;-0.37;98.68;99041.02;3437701;84;105527;-93
2021/12/05 03:08:01;;;;;;;42.43;18.90;;;;;;;-0.34;98.79;99057.12;3397082;84;163927;-93
2021/12/05 03:13:02;;;;;;;41.25;19.25;;;;;;;-0.32;98.64;99048.13;3429816;84;99014;-93
2021/12/05 03:18:04;;;;;;;45.20;21.23;;;;;;;-0.29;98.72;99060.17;3429364;84;195591;-93
2021/12/05 03:23:05;;;;;;;44.30;20.48;;;;;;;-0.27;98.55;99060.62;3421560;84;119372;-94
2021/12/05 03:28:07;;;;;;;48.10;21.23;;;;;;;-0.24;98.51;99068.06;3434248;84;99077;-93
2021/12/05 03:33:08;;;;;;;49.83;23.80;;;;;;;-0.22;98.37;99068.50;3399237;84;101937;-95
2021/12/05 03:38:09;;;;;;;45.43;20.50;;;;;;;-0.26;98.22;99067.81;3407300;84;101935;-90
2021/12/05 03:43:14;;;;;;;39.83;19.97;;;;;;;-0.23;98.13;99065.58;3420036;84;99117;-92
2021/12/05 03:48:17;;;;;;;42.63;21.27;;;;;;;-0.23;97.98;99065.58;3419336;84;67870;-94
2021/12/05 03:53:20;;;;;;;44.87;21.37;;;;;;;-0.23;98.01;99063.64;3372637;84;130756;-89
2021/12/05 03:58:23;;;;;;;45.50;21.50;;;;;;;-0.21;97.94;99064.88;3430665;84;98951;-92
2021/12/05 04:03:28;;;;;;;48.02;23.42;;;;;;;-0.19;97.86;99063.20;3410772;84;98854;-91
2021/12/05 04:08:31;;;;;;;51.83;23.30;;;;;;;-0.20;97.62;99065.10;3410743;84;99280;-92
2021/12/05 04:13:33;;;;;;;42.75;21.35;;;;;;;-0.20;97.62;99073.21;3420513;84;98987;-91
2021/12/05 04:18:34;;;;;;;48.50;21.03;;;;;;;-0.22;97.39;99075.48;3409460;84;89301;-93
2021/12/05 04:23:35;;;;;;;47.80;23.38;;;;;;;-0.17;97.47;99070.98;3409931;84;109952;-93
2021/12/05 04:28:38;;;;;;;52.83;22.60;;;;;;;-0.15;97.48;99084.38;3441530;84;98068;-92
2021/12/05 04:33:40;;;;;;;48.90;23.25;;;;;;;-0.12;97.41;99084.27;3406506;84;236578;-92
2021/12/05 04:38:41;;;;;;;47.67;23.20;;;;;;;-0.12;97.63;99097.78;3427229;84;99101;-90
2021/12/05 04:43:42;;;;;;;53.50;22.83;;;;;;;-0.10;97.60;99105.20;3387084;84;98918;-92
2021/12/05 04:48:47;;;;;;;47.97;22.00;;;;;;;-0.12;97.79;99105.90;3412254;84;96720;-91
2021/12/05 04:53:48;;;;;;;52.13;25.45;;;;;;;-0.12;97.87;99103.41;3404810;84;98789;-93
2021/12/05 04:58:49;;;;;;;45.83;23.07;;;;;;;-0.10;98.19;99107.91;3402179;84;98770;-93
2021/12/05 05:03:51;;;;;;;48.85;22.48;;;;;;;-0.07;98.19;99117.84;3404979;84;99344;-94
2021/12/05 05:08:55;;;;;;;46.13;21.63;;;;;;;-0.06;98.19;99120.19;3403178;84;112213;-92
2021/12/05 05:13:56;;;;;;;50.17;23.33;;;;;;;-0.08;98.40;99122.45;3381688;84;134569;-94
2021/12/05 05:18:59;;;;;;;49.77;24.50;;;;;;;-0.09;98.71;99120.88;3409788;84;111005;-93
2021/12/05 05:29:30;;;;;;;46.43;23.67;;;;;;;-0.07;98.75;99135.42;3401984;84;207261;-93
2021/12/05 05:39:43;;;;;;;51.20;23.40;;;;;;;-0.10;98.84;99147.12;3401470;84;121450;-94
2021/12/05 05:49:57;;;;;;;43.05;22.10;;;;;;;-0.16;99.28;99143.06;3369951;84;138278;-93
2021/12/05 05:54:56;;;;;;;43.50;21.53;;;;;;;-0.22;99.23;99144.96;3421092;84;100125;-92
2021/12/05 06:00:08;;;;;;;48.52;22.95;;;;;;;-0.19;99.50;99151.06;3423447;84;118383;-92
2021/12/05 06:05:02;;;;;;;46.87;25.33;;;;;;;-0.26;99.52;99146.78;3401007;84;229599;-94
2021/12/05 06:10:04;;;;;;;48.03;25.10;;;;;;;-0.31;99.77;99151.83;3418862;84;102887;-92
2021/12/05 06:15:09;;;;;;;44.67;23.07;;;;;;;-0.33;100.00;99154.63;3405894;84;161987;-91
2021/12/05 06:20:15;;;;;;;45.50;23.27;;;;;;;-0.32;100.00;99164.89;3415974;84;112152;-90
2021/12/05 06:25:23;;;;;;;46.48;23.38;;;;;;;-0.35;100.00;99166.36;3400374;84;135973;-92
2021/12/05 06:30:37;;;;;;;49.67;24.57;;;;;;;-0.33;100.00;99174.91;3411791;84;89858;-93
2021/12/05 06:41:05;;;;;;;47.80;24.83;;;;;;;-0.33;100.00;99189.77;3419555;84;100700;-91
2021/12/05 06:46:04;;;;;;;53.87;24.23;;;;;;;-0.31;100.00;99186.97;3394942;84;99491;-92
2021/12/05 06:51:00;;;;;;;49.00;23.17;;;;;;;-0.32;100.00;99189.44;3400180;84;99495;-92
2021/12/05 06:56:02;;;;;;;53.57;25.23;;;;;;;-0.32;100.00;99197.55;3410060;84;124499;-91
2021/12/05 07:01:08;;;;;;;52.07;24.10;;;;;;;-0.31;100.00;99202.41;3404724;84;101650;-90
2021/12/05 07:06:12;;;;;;;52.30;24.03;;;;;;;-0.33;100.00;99208.69;3421195;84;122256;-93
2021/12/05 07:11:22;;;;;;;47.27;24.33;;;;;;;-0.31;100.00;99207.81;3399641;84;120782;-92
2021/12/05 07:21:50;;;;;;;58.17;31.02;;;;;;;-0.36;100.00;99214.20;3394142;84;99776;-92
2021/12/05 07:42:41;;;;;;;47.20;22.40;;;;;;;-0.13;100.00;99240.86;3396536;84;144312;-89
2021/12/05 07:47:46;;;;;;;49.37;24.03;;;;;;;-0.12;100.00;99233.75;3395621;84;117120;-93
2021/12/05 07:52:50;;;;;;;51.03;24.50;;;;;;;-0.11;100.00;99236.67;3397254;84;99028;-93
2021/12/05 07:58:06;;;;;;;52.63;25.20;;;;;;;-0.09;100.00;99243.91;3407998;84;142253;-93
2021/12/05 08:18:52;;;;;;;56.28;28.00;;;;;;;-0.01;100.00;99252.47;3411289;84;138068;-94
2021/12/05 08:23:53;;;;;;;48.93;24.80;;;;;;;-0.01;100.00;99253.81;3422077;83;137446;-95
2021/12/05 08:29:03;;;;;;;47.55;23.50;;;;;;;0.04;100.00;99260.36;3414380;83;190152;-95
2021/12/05 08:44:33;;;;;;;52.97;23.90;;;;;;;0.13;100.00;99260.48;3398942;84;133113;-91
2021/12/05 10:06:39;;;;;;;57.62;27.82;;;;;;;0.84;100.00;99323.12;3408092;84;117179;-92
2021/12/05 10:08:44;;;;;;;52.05;27.22;;;;;;;1.02;100.00;99332.02;3413024;84;250432;-93
2021/12/05 10:14:14;;;;;;;52.00;26.47;;;;;;;1.08;100.00;99333.37;3393585;84;150328;-92
2021/12/05 10:40:32;;;;;;;55.00;28.27;;;;;;;1.30;100.00;99334.23;3423414;84;98298;-91
2021/12/05 10:45:36;;;;;;;53.73;28.37;;;;;;;1.34;100.00;99338.40;3391260;84;196768;-95
2021/12/05 10:50:47;;;;;;;54.48;28.80;;;;;;;1.31;100.00;99320.90;3341515;84;5303027;-94
2021/12/05 10:56:05;;;;;;;52.50;26.40;;;;;;;1.41;100.00;99328.56;3386479;84;186470;-94
2021/12/05 11:01:14;;;;;;;47.60;25.00;;;;;;;1.44;100.00;99329.23;3436251;84;170593;-93
2021/12/05 11:06:32;;;;;;;51.60;26.70;;;;;;;1.44;100.00;99337.92;3399696;84;294666;-93
2021/12/05 11:11:35;;;;;;;52.23;27.05;;;;;;;1.38;100.00;99329.23;3367305;84;2679277;-93
2021/12/05 11:16:44;;;;;;;53.80;27.83;;;;;;;1.46;100.00;99353.27;3403730;84;141513;-95
2021/12/05 11:21:54;;;;;;;52.13;27.30;;;;;;;1.55;100.00;99349.31;3421441;84;99092;-94
2021/12/05 11:27:15;;;;;;;50.47;27.60;;;;;;;1.51;100.00;99359.81;3417097;84;116888;-96
2021/12/05 11:32:27;;;;;;;52.57;27.33;;;;;;;1.49;100.00;99364.22;3393306;84;137380;-95
2021/12/05 11:37:25;;;;;;;54.17;29.13;;;;;;;1.45;100.00;99361.98;3406097;84;129446;-96
2021/12/05 11:42:29;;;;;;;57.13;29.67;;;;;;;1.37;100.00;99369.66;3396473;84;163109;-96
2021/12/05 11:47:35;;;;;;;53.70;28.40;;;;;;;1.34;100.00;99379.05;3400510;84;145966;-96
2021/12/05 11:52:40;;;;;;;58.35;32.50;;;;;;;1.29;100.00;99388.77;3422821;84;160997;-96
2021/12/05 11:57:42;;;;;;;62.53;33.23;;;;;;;1.30;100.00;99391.70;3422194;84;107396;-96
2021/12/05 12:02:48;;;;;;;57.97;31.10;;;;;;;1.30;100.00;99393.05;3392079;84;195727;-94
2021/12/05 12:08:07;;;;;;;53.60;29.15;;;;;;;1.25;100.00;99376.47;3332021;84;5237136;-94
2021/12/05 12:13:24;;;;;;;57.93;28.98;;;;;;;1.32;100.00;99384.80;3395503;84;1546039;-95
2021/12/05 12:18:24;;;;;;;61.70;31.27;;;;;;;1.29;100.00;99388.22;3417480;84;183195;-95
2021/12/05 12:23:26;;;;;;;62.67;32.60;;;;;;;1.29;100.00;99384.16;3353328;84;4679425;-96
2021/12/05 12:28:28;;;;;;;61.95;33.15;;;;;;;1.27;100.00;99388.33;3403522;84;139448;-96
2021/12/05 12:33:44;;;;;;;61.05;31.55;;;;;;;1.27;100.00;99385.62;3399815;84;147383;-96
2021/12/05 12:38:45;;;;;;;57.47;31.10;;;;;;;1.23;100.00;99385.52;3387031;84;144622;-94
2021/12/05 12:44:03;;;;;;;62.85;31.37;;;;;;;1.22;100.00;99389.91;3363275;84;1239747;-96
2021/12/05 12:49:37;;;;;;;59.75;30.02;;;;;;;1.20;100.00;99390.25;3419799;84;98284;-96
2021/12/05 12:55:05;;;;;;;;;;;;;;;;;;;;;
2021/12/05 13:00:15;;;;;;;64.47;31.97;;;;;;;1.21;100.00;99393.17;3407834;84;162536;-96
2021/12/05 13:10:52;;;;;;;66.20;32.83;;;;;;;1.23;100.00;99400.42;3266950;84;1343821;-96
2021/12/05 13:16:28;;;;;;;72.47;37.20;;;;;;;1.19;100.00;99406.84;3418892;84;98754;-96
2021/12/05 13:21:42;;;;;;;73.47;33.67;;;;;;;1.07;100.00;99413.07;3398919;84;98907;-93
2021/12/05 13:26:44;;;;;;;82.80;38.73;;;;;;;1.05;100.00;99430.78;3418287;81;57167;-89
2021/12/05 13:31:53;;;;;;;84.77;41.23;;;;;;;1.05;100.00;99441.05;3462972;83;99003;-90
2021/12/05 13:37:13;;;;;;;83.07;41.20;;;;;;;1.03;100.00;99441.95;3446816;82;98736;-89
2021/12/05 13:42:27;;;;;;;92.30;42.63;;;;;;;1.01;100.00;99442.06;3467127;82;98531;-89
2021/12/05 13:47:45;;;;;;;83.73;41.80;;;;;;;1.03;100.00;99457.41;3492497;82;98887;-89
2021/12/05 13:53:09;;;;;;;83.05;40.23;;;;;;;1.03;100.00;99465.53;3478603;83;98672;-87
2021/12/05 13:58:35;;;;;;;71.77;36.20;;;;;;;1.01;100.00;99466.45;3451778;83;98628;-88
2021/12/05 14:04:19;;;;;;;71.33;34.30;;;;;;;1.03;100.00;99479.88;3499741;82;99286;-87
2021/12/05 14:09:46;;;;;;;72.03;35.50;;;;;;;1.06;100.00;99496.03;3504980;82;28353;-88
2021/12/05 14:14:52;;;;;;;72.47;36.00;;;;;;;1.08;100.00;99495.92;3497770;82;98709;-87
2021/12/05 14:20:01;;;;;;;74.00;35.53;;;;;;;1.08;100.00;99499.98;3493762;82;98659;-87
2021/12/05 14:25:19;;;;;;;77.27;34.00;;;;;;;1.10;100.00;99505.84;3485792;82;98874;-89
2021/12/05 14:30:26;;;;;;;69.83;33.77;;;;;;;1.12;100.00;99511.73;3494107;82;98943;-86
2021/12/05 14:35:36;;;;;;;65.70;33.80;;;;;;;1.14;100.00;99518.16;3478819;83;98892;-89
2021/12/05 14:40:38;;;;;;;84.50;38.67;;;;;;;1.13;100.00;99526.06;3478075;82;98160;-91
2021/12/05 14:45:41;;;;;;;76.97;37.20;;;;;;;1.17;100.00;99533.20;3476479;83;98301;-91
2021/12/05 14:50:44;;;;;;;77.03;37.47;;;;;;;1.23;100.00;99543.24;3470122;83;98469;-91
2021/12/05 14:55:48;;;;;;;93.70;42.10;;;;;;;1.29;100.00;99556.25;3479588;82;98959;-90
2021/12/05 15:00:53;;;;;;;84.03;37.77;;;;;;;1.27;100.00;99564.48;3481172;83;98931;-89
2021/12/05 15:06:02;;;;;;;76.30;35.23;;;;;;;1.24;100.00;99574.63;3489372;82;98874;-90
2021/12/05 15:11:08;;;;;;;75.97;36.33;;;;;;;1.23;100.00;99573.86;3493286;82;98887;-86
2021/12/05 15:16:10;;;;;;;71.25;34.70;;;;;;;1.28;100.00;99574.20;3482790;82;98960;-86
2021/12/05 15:21:11;;;;;;;69.73;34.87;;;;;;;1.24;100.00;99564.59;3498650;82;35099;-82
2021/12/05 15:26:14;;;;;;;74.30;35.33;;;;;;;1.22;100.00;99580.96;3433340;83;99050;-88
2021/12/05 15:31:16;;;;;;;77.33;36.03;;;;;;;1.14;100.00;99581.83;3436584;83;97963;-89
2021/12/05 15:36:17;;;;;;;68.97;34.30;;;;;;;1.12;100.00;99584.89;3457970;83;99033;-85
2021/12/05 15:41:18;;;;;;;70.70;34.33;;;;;;;1.14;100.00;99592.11;3496285;82;98859;-87
2021/12/05 15:46:19;;;;;;;73.77;34.40;;;;;;;1.10;100.00;99599.32;3432736;84;98839;-87
2021/12/05 15:51:22;;;;;;;69.07;32.50;;;;;;;1.07;100.00;99605.97;3459946;84;39256;-87
2021/12/05 15:56:24;;;;;;;68.57;33.13;;;;;;;1.02;100.00;99611.05;3426578;83;98781;-86
2021/12/05 16:01:26;;;;;;;61.53;30.80;;;;;;;1.00;100.00;99615.22;3516863;82;98733;-86
2021/12/05 16:06:38;;;;;;;67.20;32.63;;;;;;;0.96;100.00;99613.73;3498119;82;98980;-89
2021/12/05 16:11:39;;;;;;;73.33;33.53;;;;;;;0.96;100.00;99625.93;3502656;82;99094;-87
2021/12/05 16:16:43;;;;;;;80.90;39.57;;;;;;;0.96;100.00;99628.64;3499443;82;98878;-88
2021/12/05 16:21:44;;;;;;;74.87;35.17;;;;;;;0.96;100.00;99626.48;3491699;81;99053;-86
2021/12/05 16:26:48;;;;;;;89.83;39.27;;;;;;;0.91;100.00;99630.74;3517005;82;98548;-90
2021/12/05 16:31:57;;;;;;;80.63;38.23;;;;;;;0.93;100.00;99632.58;3482042;81;98930;-87
2021/12/05 16:37:05;;;;;;;71.73;33.03;;;;;;;0.93;100.00;99632.00;3477398;82;99470;-88
2021/12/05 16:42:14;;;;;;;73.83;36.27;;;;;;;0.88;100.00;99624.08;3494558;81;137612;-90
2021/12/05 16:47:19;;;;;;;71.87;36.37;;;;;;;0.83;100.00;99622.92;3506116;82;99100;-93
2021/12/05 16:52:29;;;;;;;70.70;33.93;;;;;;;0.82;100.00;99622.70;3503576;82;99466;-92
2021/12/05 16:57:43;;;;;;;87.50;37.80;;;;;;;0.82;100.00;99628.12;3520438;82;68002;-89
2021/12/05 17:02:42;;;;;;;;;;;;;;;0.81;100.00;99628.44;3425887;84;98723;-91
2021/12/05 17:08:06;;;;;;;89.87;39.23;;;;;;;0.81;100.00;99636.56;3440890;83;83801;-93
2021/12/05 17:13:25;;;;;;;81.10;35.92;;;;;;;0.79;100.00;99648.30;3484440;81;189027;-92
2021/12/05 17:18:32;;;;;;;146.07;57.45;;;;;;;0.77;100.00;99660.81;3484674;82;99111;-89
2021/12/05 17:23:38;;;;;;;107.63;44.87;;;;;;;0.76;100.00;99669.26;3491855;81;99024;-92
2021/12/05 17:28:48;;;;;;;76.02;36.20;;;;;;;0.71;100.00;99674.91;3503161;81;99471;-91
2021/12/05 17:33:54;;;;;;;75.90;34.43;;;;;;;0.70;100.00;99686.83;3499141;82;98723;-93
2021/12/05 17:39:00;;;;;;;78.05;33.90;;;;;;;0.70;100.00;99712.00;3491886;82;98481;-93
2021/12/05 17:44:03;;;;;;;;;;;;;;;0.71;100.00;99719.00;3515289;81;98747;-93
2021/12/05 17:49:09;;;;;;;82.25;37.33;;;;;;;0.69;100.00;99726.67;3511238;82;85394;-89
2021/12/05 17:54:44;;;;;;;76.87;34.17;;;;;;;0.72;100.00;99730.64;3480548;82;99173;-91
2021/12/05 18:04:58;;;;;;;72.08;31.93;;;;;;;0.69;100.00;99738.86;3452648;83;135419;-90
2021/12/05 18:09:59;;;;;;;75.30;33.13;;;;;;;0.70;100.00;99746.40;3509638;82;99080;-93
2021/12/05 18:15:16;;;;;;;69.77;32.88;;;;;;;0.72;100.00;99750.95;3479067;83;98952;-95
2021/12/05 18:20:22;;;;;;;72.17;34.23;;;;;;;0.73;100.00;99757.36;3481486;82;98744;-95
2021/12/05 18:25:22;;;;;;;71.13;32.40;;;;;;;0.70;100.00;99761.29;3447432;82;98681;-93
2021/12/05 18:30:26;;;;;;;77.63;37.20;;;;;;;0.64;100.00;99756.64;3481641;83;98770;-89
2021/12/05 18:35:31;;;;;;;67.77;31.27;;;;;;;0.60;100.00;99764.41;3498636;83;98898;-91
2021/12/05 18:40:32;;;;;;;65.20;30.90;;;;;;;0.57;100.00;99768.55;3477166;82;98945;-92
2021/12/05 18:45:37;;;;;;;67.87;31.37;;;;;;;0.58;100.00;99795.05;3481905;82;98802;-93
2021/12/05 18:50:46;;;;;;;67.27;30.73;;;;;;;0.57;100.00;99793.47;3473662;82;99090;-91
2021/12/05 18:55:50;;;;;;;61.42;28.60;;;;;;;0.54;100.00;99791.41;3476293;82;98610;-94
2021/12/05 19:06:21;;;;;;;60.83;30.30;;;;;;;0.55;100.00;99801.91;3465692;82;99246;-89
2021/12/05 19:16:40;;;;;;;67.30;32.37;;;;;;;0.54;100.00;99809.00;3471744;82;98957;-90
2021/12/05 19:21:41;;;;;;;69.60;33.27;;;;;;;0.54;100.00;99804.94;3472308;82;98763;-91
2021/12/05 19:26:45;;;;;;;62.73;30.63;;;;;;;0.54;100.00;99817.92;3489903;82;98649;-88
2021/12/05 19:31:49;;;;;;;74.13;35.87;;;;;;;0.54;100.00;99812.52;3472694;82;99236;-89
2021/12/05 19:36:51;;;;;;;88.82;37.93;;;;;;;0.49;100.00;99807.82;3471155;82;99374;-88
2021/12/05 19:41:54;;;;;;;84.53;40.00;;;;;;;0.48;100.00;99806.24;3458827;81;105762;-90
2021/12/05 19:46:56;;;;;;;89.90;38.37;;;;;;;0.43;100.00;99806.42;3493509;81;99164;-87
2021/12/05 19:52:00;;;;;;;84.00;38.20;;;;;;;0.42;100.00;99808.35;3481119;82;98701;-88
2021/12/05 19:57:02;;;;;;;86.77;42.77;;;;;;;0.37;100.00;99810.42;3491068;81;98542;-89
2021/12/05 20:02:04;;;;;;;86.10;39.50;;;;;;;0.34;100.00;99815.16;3462281;82;98963;-86
2021/12/05 20:07:05;;;;;;;95.30;44.00;;;;;;;0.33;100.00;99831.94;3493858;83;98751;-86
2021/12/05 20:12:08;;;;;;;97.77;45.60;;;;;;;0.35;100.00;99851.92;3489541;83;99127;-85
2021/12/05 20:17:09;;;;;;;103.00;44.80;;;;;;;0.34;100.00;99854.39;3470797;82;98898;-86
2021/12/05 20:22:12;;;;;;;78.62;38.00;;;;;;;0.39;100.00;99854.22;3476975;82;99310;-86
2021/12/05 20:27:13;;;;;;;78.33;37.37;;;;;;;0.39;100.00;99849.58;3483466;82;26477;-86
2021/12/05 20:32:14;;;;;;;83.10;37.38;;;;;;;0.43;100.00;99857.30;3461695;82;98878;-86
2021/12/05 20:37:14;;;;;;;77.93;37.60;;;;;;;0.41;100.00;99859.55;3468518;83;99148;-87
2021/12/05 20:42:15;;;;;;;66.07;30.65;;;;;;;0.40;100.00;99867.41;3485234;82;98927;-86
2021/12/05 20:47:18;;;;;;;73.00;34.80;;;;;;;0.39;100.00;99867.17;3450610;82;99003;-87
2021/12/05 20:52:19;;;;;;;71.70;32.37;;;;;;;0.41;100.00;99874.44;3483694;82;98968;-86
2021/12/05 20:57:19;;;;;;;79.17;35.60;;;;;;;0.39;100.00;99873.94;3506106;82;34846;-86
2021/12/05 21:02:20;;;;;;;75.08;34.48;;;;;;;0.39;100.00;99880.70;3417034;83;99082;-86
2021/12/05 21:07:23;;;;;;;71.50;33.57;;;;;;;0.38;100.00;99876.97;3467220;83;99459;-84
2021/12/05 21:12:26;;;;;;;72.23;33.83;;;;;;;0.39;100.00;99879.94;3463597;82;98892;-85
2021/12/05 21:17:27;;;;;;;74.73;33.27;;;;;;;0.37;100.00;99887.56;3488639;82;98901;-86
2021/12/05 21:22:30;;;;;;;68.42;31.05;;;;;;;0.41;100.00;99896.09;3486120;82;98901;-87
2021/12/05 21:27:30;;;;;;;65.90;30.50;;;;;;;0.38;100.00;99892.66;3494508;82;33857;-88
2021/12/05 21:32:33;;;;;;;80.30;36.37;;;;;;;0.36;100.00;99886.78;3482642;82;99088;-87
2021/12/05 21:37:35;;;;;;;73.53;33.37;;;;;;;0.35;100.00;99900.09;3469981;82;99078;-88
2021/12/05 21:42:36;;;;;;;70.77;33.67;;;;;;;0.36;100.00;99900.86;3449324;82;98877;-86
2021/12/05 21:47:37;;;;;;;57.57;30.73;;;;;;;0.37;100.00;99911.92;3470705;82;98926;-88
2021/12/05 21:52:38;;;;;;;54.67;27.63;;;;;;;0.40;100.00;99908.00;3485021;82;99291;-87
2021/12/05 21:57:40;;;;;;;62.73;31.43;;;;;;;0.48;100.00;99905.85;3462298;83;35535;-88
2021/12/05 22:02:40;;;;;;;62.33;29.30;;;;;;;0.50;100.00;99922.55;3475324;82;98987;-89
2021/12/05 22:07:42;;;;;;;60.47;30.97;;;;;;;0.47;100.00;99920.51;3461018;83;98740;-90
2021/12/05 22:12:46;;;;;;;61.97;31.57;;;;;;;0.53;100.00;99930.59;3479615;82;99236;-88
2021/12/05 22:17:48;;;;;;;61.07;31.00;;;;;;;0.56;100.00;99932.09;3486276;82;98909;-87
2021/12/05 22:22:49;;;;;;;57.57;30.90;;;;;;;0.55;100.00;99939.20;3476844;82;99537;-89
2021/12/05 22:27:50;;;;;;;56.73;29.27;;;;;;;0.53;100.00;99953.59;3451343;82;35685;-86
2021/12/05 22:32:52;;;;;;;54.73;28.07;;;;;;;0.53;100.00;99950.89;3494072;82;99062;-87
2021/12/05 22:37:55;;;;;;;56.63;29.10;;;;;;;0.58;100.00;99956.14;3475528;82;98638;-86
2021/12/05 22:42:56;;;;;;;57.73;27.93;;;;;;;0.60;100.00;99954.70;3485838;82;98953;-86
2021/12/05 22:47:58;;;;;;;56.03;27.87;;;;;;;0.63;100.00;99958.13;3475992;83;99393;-86
2021/12/05 22:52:59;;;;;;;54.53;27.82;;;;;;;0.67;100.00;99953.64;3475365;82;98941;-87
2021/12/05 22:57:59;;;;;;;55.80;28.10;;;;;;;0.70;100.00;99969.25;3476280;82;43098;-86
2021/12/05 23:03:00;;;;;;;53.83;26.80;;;;;;;0.69;100.00;99971.73;3500988;82;98920;-87
2021/12/05 23:08:02;;;;;;;59.40;28.60;;;;;;;0.70;100.00;99969.80;3486588;82;99138;-85
2021/12/05 23:13:03;;;;;;;53.87;26.57;;;;;;;0.70;100.00;99963.03;3479062;82;99268;-85
2021/12/05 23:18:04;;;;;;;54.47;27.77;;;;;;;0.71;100.00;99961.94;3475490;82;98917;-85
2021/12/05 23:23:05;;;;;;;56.63;29.10;;;;;;;0.72;100.00;99950.76;3467460;82;98983;-84
2021/12/05 23:28:07;;;;;;;61.67;31.10;;;;;;;0.74;100.00;99953.95;3481898;83;98880;-83
2021/12/05 23:33:13;;;;;;;53.57;26.37;;;;;;;0.75;100.00;99950.13;3477222;83;98946;-84
2021/12/05 23:38:16;;;;;;;49.83;26.03;;;;;;;0.75;100.00;99952.03;3477612;82;99086;-83
2021/12/05 23:43:19;;;;;;;53.60;27.07;;;;;;;0.74;100.00;99949.09;3460322;83;98913;-83
2021/12/05 23:48:22;;;;;;;55.70;28.70;;;;;;;0.71;100.00;99946.47;3484285;82;99115;-83
2021/12/05 23:53:25;;;;;;;53.97;27.80;;;;;;;0.69;100.00;99939.23;3494899;82;98890;-83
2021/12/05 23:58:28;;;;;;;53.78;28.67;;;;;;;0.66;100.00;99941.80;3517519;82;98905;-83
